Weather at Fort Lauderdale Hollywood International Airport

Public forecast

Using degrees Fahrenheit for public forecast. Weather courtesy of forecast.io.

Current aviation weather report (METAR) for Fort Lauderdale Hollywood International Airport

Retrieved 2021/10/22 05:53 UTC (31 minutes ago):

KFLL 220553Z AUTO 09008KT 10SM FEW049 26/26 A3002 RMK AO2 SLP167 60000 T02610261 10267 20261 56010

Aviation forecast (TAF) for Fort Lauderdale Hollywood International Airport

Retrieved 2021/10/22 06:37 UTC (0 seconds ago):

TAF COR KFLL 220529Z 2206/2312 09007KT P6SM FEW040 SCT060 FM221500 10011KT P6SM VCSH SCT025 BKN050 FM230100 VRB05KT P6SM VCSH SCT025 SCT050